Flight Track Log - Related Links

Times and Time Zones

All times are in EDT time to prevent confusion due to time zone crossing. See the THY2463 flight status page for this flight to view local times or setup timezone preferences in your user account.

Time Position Orientation Groundspeed Altitude Reporting Facility
EDT Latitude Longitude Course Direction KTS MPH feet Rate Location/Type
09:47AM 37.3805 34.6914 311° West  Level Estimated
09:48AM 37.4372 34.6067 310° West  Level Estimated
09:49AM 37.4938 34.5219 310° West  Level Estimated
09:50AM 37.5503 34.4370 310° West  Level Estimated
09:51AM 37.6068 34.3520 310° West  Level Estimated
09:52AM 37.6632 34.2668 310° West  Level Estimated
09:53AM 37.7196 34.1815 310° West  Level Estimated
09:54AM 37.7759 34.0961 310° West  Level Estimated
09:55AM 37.8321 34.0105 310° West  Level Estimated
09:56AM 37.8883 33.9249 310° West  Level Estimated
09:57AM 37.9444 33.8390 310° West  Level Estimated
09:58AM 38.0005 33.7531 310° West  Level Estimated
09:59AM 38.0564 33.6670 310° West  Level Estimated
10:00AM 38.1124 33.5808 310° West  Level Estimated
10:01AM 38.1682 33.4944 309° West  Level Estimated
10:02AM 38.2240 33.4080 309° West  Level Estimated
10:03AM 38.2798 33.3214 309° West  Level Estimated
10:04AM 38.3354 33.2346 309° West  Level Estimated
10:05AM 38.3911 33.1477 309° West  Level Estimated
10:06AM 38.4466 33.0607 309° West  Level Estimated
10:07AM 38.5021 32.9736 309° West  Level Estimated
10:08AM 38.5575 32.8863 309° West  Level Estimated
10:09AM 38.6129 32.7989 309° West  Level Estimated
10:10AM 38.6681 32.7113 309° West  Level Estimated
10:11AM 38.7234 32.6237 309° West  Level Estimated
10:12AM 38.7785 32.5359 309° West  Level Estimated
10:13AM 38.8336 32.4479 309° West  Level Estimated
10:14AM 38.8886 32.3598 309° West  Level Estimated
10:15AM 38.9436 32.2716 309° West  Level Estimated
10:16AM 38.9985 32.1832 309° West  Level Estimated
10:17AM 39.0533 32.0947 309° West  Level Estimated
10:18AM 39.1081 32.0061 309° West  Level Estimated
10:19AM 39.1627 31.9173 308° West  Level Estimated
10:20AM 39.2174 31.8284 308° West  Level Estimated
10:21AM 39.2719 31.7393 308° West  Level Estimated
10:22AM 39.3264 31.6502 308° West  Level Estimated
10:23AM 39.3808 31.5608 308° West  Level Estimated
10:24AM 39.4352 31.4713 308° West  Level Estimated
10:25AM 39.4894 31.3817 308° West  Level Estimated
10:26AM 39.5437 31.2920 308° West  Level Estimated
10:27AM 39.5978 31.2021 308° West  Level Estimated
10:28AM 39.6519 31.1121 308° West  Level Estimated
10:29AM 39.7059 31.0219 308° West  Level Estimated
10:30AM 39.7598 30.9316 308° West  Level Estimated
10:31AM 39.8137 30.8411 308° West  Level Estimated
10:32AM 39.8675 30.7505 308° West  Level Estimated
10:33AM 39.9212 30.6598 308° West  Level Estimated
10:34AM 39.9748 30.5689 308° West  Level Estimated
10:35AM 40.0284 30.4779 308° West  Level Estimated
10:36AM 40.0819 30.3867 308° West  Level Estimated
10:37AM 40.1353 30.2954 307° West  Level Estimated
10:38AM 40.1887 30.2040 307° West  Level Estimated
10:39AM 40.2420 30.1124 307° West  Level Estimated
10:40AM 40.2952 30.0207 307° West  Level Estimated
10:41AM 40.3484 29.9288 307° West  Level Estimated
10:42AM 40.4015 29.8367 307° West  Level Estimated
10:43AM 40.4545 29.7446 307° West  Level Estimated
10:44AM 40.5074 29.6523 307° West  Level Estimated
10:45AM 40.5602 29.5598 307° West  Level Estimated
10:46AM 40.6130 29.4672 307° West  Level Estimated
10:47AM 40.6657 29.3744 307° West  Level Estimated
10:48AM 40.7184 29.2815 307° West  Level Estimated
10:49AM 40.7709 29.1885 307° West  Level Estimated
10:50AM 40.8234 29.0953 307° West  Level Estimated
10:51AM 40.8758 29.0019 307° West  Level Estimated
10:52AM 40.9282 28.9084 307° West  Level Estimated
10:53AM 40.9769 28.8211 306° West  Level Estimated
10:54AM 40.9769 28.8211 21° North  Level Estimated
10:55AM 40.9769 28.8211 21° North  Level Estimated
10:56AM 40.9769 28.8211 21° North  Level Estimated
10:57AM 40.9769 28.8211 21° North  Level Estimated
10:58AM 40.9769 28.8211 21° North  Level Estimated
10:59AM 40.9769 28.8211 21° North  Level Estimated
11:00AM 40.9769 28.8211 21° North  Level Estimated
11:01AM 40.9769 28.8211 21° North  Level Estimated
11:02AM 40.9769 28.8211 21° North  Level Estimated
11:03AM 40.9769 28.8211 21° North  Level Estimated
11:04AM 40.9769 28.8211 21° North  Level Estimated
11:05AM 40.9769 28.8211 21° North  Level Estimated
11:06AM 40.9769 28.8211 21° North  Level Estimated

Login

Don't have an account? Register now (free) for customized features, flight alerts, and more!